Newark Liberty International Airport
KEWR : now visible

Airfield :











YOU CAN JOIN US ON...

 
LOGIN :

Register | Disclaimer

   EN    FR    IT 

 









Legend :    VFR   Marginal VFR   IFR   Intensive IFR   Very Intensive IFR
Visi :
Ceiling :
>= 8 km
>= 3000ft
5 to 8 km
1000 to 3000 ft
1500m to 5 km
500 to 1000 ft
800 to 1500m
200 to 500 ft
< 800m
< 200 ft
Symbols :   Thunderstorms  Fog  Heavy snow  Heavy precipitations  Wind > 20 kt







- Airport Elevation : 18 ft
- IATA code : EWR


KEWR - Newark Liberty International

CURRENT METAR :
  • 201651Z 25008KT 10SM BKN250 24/07 A3022 RMK AO2 SLP233 T02440067

EXPIRED METARs :
  • 201551Z 29012KT 10SM BKN250 23/08 A3024 RMK AO2 SLP239 T02280078
  • 201451Z 27012G17KT 10SM BKN250 22/07 A3026 RMK AO2 SLP248 T02170072 58008

TAF KEWR
Valid from the 20 at 16:00 until the 21 at 18:00 UTC


201537Z 2016/2118 25009G14KT P6SM FEW250
FM201700 28010KT P6SM SCT250
FM202300 25008KT P6SM SCT250
FM210100 27007KT P6SM FEW250
FM210900 30005KT P6SM FEW250
FM211700 26005KT P6SM FEW250
No reported NOTAMs for that airfield.



MET'MAP, your aeronautical weather chart ! - Copyright ORBIFLY December 2007 - Disclaimer

ORBIFLY MET'MAP TEAM :

Programming & Development : Alexandra Zaïnal
Concept & Development : Baudouin d'Aumeries
Co-Development & Prog : Marc-Olivier Méhu
Technical & hardware support : Manuel Goepfert

Contact : metmap@orbifly.com




SOURCES & CREDITS :

   NOAA       Earth
Advisory